sensor_id;sensor_type;location;lat;lon;timestamp;temperature;humidity
20337;DHT22;10326;53.660;10.200;2023-02-14T00:01:07;9.60;80.90
20337;DHT22;10326;53.660;10.200;2023-02-14T00:03:36;9.50;80.70
20337;DHT22;10326;53.660;10.200;2023-02-14T00:06:05;9.60;80.90
20337;DHT22;10326;53.660;10.200;2023-02-14T00:08:33;9.60;80.80
20337;DHT22;10326;53.660;10.200;2023-02-14T00:11:00;9.60;80.80
20337;DHT22;10326;53.660;10.200;2023-02-14T00:13:27;9.60;80.80
20337;DHT22;10326;53.660;10.200;2023-02-14T00:15:54;9.60;80.80
20337;DHT22;10326;53.660;10.200;2023-02-14T00:18:22;9.60;80.90
20337;DHT22;10326;53.660;10.200;2023-02-14T00:21:11;9.60;80.80
20337;DHT22;10326;53.660;10.200;2023-02-14T00:23:38;9.60;80.50
20337;DHT22;10326;53.660;10.200;2023-02-14T00:26:12;9.60;80.50
20337;DHT22;10326;53.660;10.200;2023-02-14T00:28:41;9.50;80.40
20337;DHT22;10326;53.660;10.200;2023-02-14T00:31:08;9.50;80.60
20337;DHT22;10326;53.660;10.200;2023-02-14T00:33:35;9.50;80.60
20337;DHT22;10326;53.660;10.200;2023-02-14T00:36:03;9.50;80.60
20337;DHT22;10326;53.660;10.200;2023-02-14T00:38:33;9.50;80.30
20337;DHT22;10326;53.660;10.200;2023-02-14T00:41:00;9.50;80.30
20337;DHT22;10326;53.660;10.200;2023-02-14T00:43:28;9.50;80.20
20337;DHT22;10326;53.660;10.200;2023-02-14T00:45:56;9.50;80.30
20337;DHT22;10326;53.660;10.200;2023-02-14T00:48:23;9.40;80.10
20337;DHT22;10326;53.660;10.200;2023-02-14T00:50:50;9.40;80.10
20337;DHT22;10326;53.660;10.200;2023-02-14T00:53:18;9.30;80.00
20337;DHT22;10326;53.660;10.200;2023-02-14T00:55:46;9.30;80.10
20337;DHT22;10326;53.660;10.200;2023-02-14T00:58:14;9.30;80.20
20337;DHT22;10326;53.660;10.200;2023-02-14T01:00:41;9.30;80.30
20337;DHT22;10326;53.660;10.200;2023-02-14T01:03:08;9.30;80.40
20337;DHT22;10326;53.660;10.200;2023-02-14T01:05:35;9.30;80.50
20337;DHT22;10326;53.660;10.200;2023-02-14T01:08:03;9.30;80.50
20337;DHT22;10326;53.660;10.200;2023-02-14T01:10:31;9.30;80.30
20337;DHT22;10326;53.660;10.200;2023-02-14T01:12:59;9.30;80.30
20337;DHT22;10326;53.660;10.200;2023-02-14T01:15:26;9.30;80.40
20337;DHT22;10326;53.660;10.200;2023-02-14T01:17:53;9.30;80.50
20337;DHT22;10326;53.660;10.200;2023-02-14T01:20:21;9.30;80.50
20337;DHT22;10326;53.660;10.200;2023-02-14T01:22:48;9.30;80.50
20337;DHT22;10326;53.660;10.200;2023-02-14T01:25:16;9.30;80.50
20337;DHT22;10326;53.660;10.200;2023-02-14T01:27:43;9.30;80.60
20337;DHT22;10326;53.660;10.200;2023-02-14T01:30:14;9.30;80.60
20337;DHT22;10326;53.660;10.200;2023-02-14T01:32:42;9.30;80.50
20337;DHT22;10326;53.660;10.200;2023-02-14T01:35:10;9.30;80.50
20337;DHT22;10326;53.660;10.200;2023-02-14T01:37:38;9.30;80.60
20337;DHT22;10326;53.660;10.200;2023-02-14T01:40:06;9.30;80.60
20337;DHT22;10326;53.660;10.200;2023-02-14T01:42:36;9.30;80.50
20337;DHT22;10326;53.660;10.200;2023-02-14T01:45:06;9.30;80.40
20337;DHT22;10326;53.660;10.200;2023-02-14T01:47:39;9.30;80.40
20337;DHT22;10326;53.660;10.200;2023-02-14T01:50:09;9.30;80.50
20337;DHT22;10326;53.660;10.200;2023-02-14T01:52:43;9.30;80.50
20337;DHT22;10326;53.660;10.200;2023-02-14T01:55:14;9.30;80.60
20337;DHT22;10326;53.660;10.200;2023-02-14T01:57:47;9.30;80.50
20337;DHT22;10326;53.660;10.200;2023-02-14T02:00:19;9.30;80.60
20337;DHT22;10326;53.660;10.200;2023-02-14T02:03:07;9.30;80.60
20337;DHT22;10326;53.660;10.200;2023-02-14T02:05:35;9.30;80.60
20337;DHT22;10326;53.660;10.200;2023-02-14T02:08:04;9.30;80.50
20337;DHT22;10326;53.660;10.200;2023-02-14T02:10:31;9.30;80.60
20337;DHT22;10326;53.660;10.200;2023-02-14T02:13:02;9.30;80.70
20337;DHT22;10326;53.660;10.200;2023-02-14T02:15:36;9.30;80.70
20337;DHT22;10326;53.660;10.200;2023-02-14T02:18:14;9.30;80.70
20337;DHT22;10326;53.660;10.200;2023-02-14T02:24:15;9.30;80.70
20337;DHT22;10326;53.660;10.200;2023-02-14T02:27:14;9.30;80.80
20337;DHT22;10326;53.660;10.200;2023-02-14T02:39:47;9.30;80.70
20337;DHT22;10326;53.660;10.200;2023-02-14T02:42:26;9.20;80.60
20337;DHT22;10326;53.660;10.200;2023-02-14T02:45:08;9.20;80.50
20337;DHT22;10326;53.660;10.200;2023-02-14T02:47:41;9.20;80.50
20337;DHT22;10326;53.660;10.200;2023-02-14T02:50:19;9.20;80.60
20337;DHT22;10326;53.660;10.200;2023-02-14T02:53:15;9.20;80.70
20337;DHT22;10326;53.660;10.200;2023-02-14T02:55:51;9.20;80.80
20337;DHT22;10326;53.660;10.200;2023-02-14T02:58:41;9.10;80.80
20337;DHT22;10326;53.660;10.200;2023-02-14T03:01:13;9.10;80.90
20337;DHT22;10326;53.660;10.200;2023-02-14T03:03:45;9.10;80.90
20337;DHT22;10326;53.660;10.200;2023-02-14T03:06:32;9.10;80.80
20337;DHT22;10326;53.660;10.200;2023-02-14T03:09:11;9.10;80.80
20337;DHT22;10326;53.660;10.200;2023-02-14T03:11:44;9.10;80.60
20337;DHT22;10326;53.660;10.200;2023-02-14T03:14:19;9.10;80.70
20337;DHT22;10326;53.660;10.200;2023-02-14T03:16:59;9.10;80.90
20337;DHT22;10326;53.660;10.200;2023-02-14T03:19:43;9.10;80.80
20337;DHT22;10326;53.660;10.200;2023-02-14T03:22:42;9.10;80.80
20337;DHT22;10326;53.660;10.200;2023-02-14T03:25:28;9.10;80.80
20337;DHT22;10326;53.660;10.200;2023-02-14T03:28:06;9.10;81.00
20337;DHT22;10326;53.660;10.200;2023-02-14T03:30:44;9.10;81.00
20337;DHT22;10326;53.660;10.200;2023-02-14T03:33:21;9.10;81.10
20337;DHT22;10326;53.660;10.200;2023-02-14T03:35:55;9.10;81.10
20337;DHT22;10326;53.660;10.200;2023-02-14T03:38:29;9.10;81.10
20337;DHT22;10326;53.660;10.200;2023-02-14T03:41:04;9.00;81.00
20337;DHT22;10326;53.660;10.200;2023-02-14T03:43:36;9.00;80.90
20337;DHT22;10326;53.660;10.200;2023-02-14T03:46:09;9.10;81.00
20337;DHT22;10326;53.660;10.200;2023-02-14T03:48:39;9.00;81.00
20337;DHT22;10326;53.660;10.200;2023-02-14T03:51:09;9.00;81.10
20337;DHT22;10326;53.660;10.200;2023-02-14T03:53:42;9.00;81.20
20337;DHT22;10326;53.660;10.200;2023-02-14T03:56:16;9.00;81.20
20337;DHT22;10326;53.660;10.200;2023-02-14T03:58:48;9.00;81.20
20337;DHT22;10326;53.660;10.200;2023-02-14T04:01:21;9.00;81.20
20337;DHT22;10326;53.660;10.200;2023-02-14T04:03:53;9.00;81.30
20337;DHT22;10326;53.660;10.200;2023-02-14T04:06:22;9.00;81.20
20337;DHT22;10326;53.660;10.200;2023-02-14T04:08:49;9.00;81.20
20337;DHT22;10326;53.660;10.200;2023-02-14T04:11:18;9.00;81.30
20337;DHT22;10326;53.660;10.200;2023-02-14T04:13:45;9.00;81.30
20337;DHT22;10326;53.660;10.200;2023-02-14T04:16:12;9.00;81.30
20337;DHT22;10326;53.660;10.200;2023-02-14T04:18:39;9.00;81.30
20337;DHT22;10326;53.660;10.200;2023-02-14T04:21:24;8.90;81.20
20337;DHT22;10326;53.660;10.200;2023-02-14T04:23:51;9.00;81.20
20337;DHT22;10326;53.660;10.200;2023-02-14T04:26:20;9.00;81.20
20337;DHT22;10326;53.660;10.200;2023-02-14T04:28:47;9.00;81.20
20337;DHT22;10326;53.660;10.200;2023-02-14T04:31:14;9.00;81.20
20337;DHT22;10326;53.660;10.200;2023-02-14T04:33:41;8.90;81.10
20337;DHT22;10326;53.660;10.200;2023-02-14T04:36:15;8.90;81.20
20337;DHT22;10326;53.660;10.200;2023-02-14T04:38:43;8.90;81.20
20337;DHT22;10326;53.660;10.200;2023-02-14T04:41:10;8.90;81.10
20337;DHT22;10326;53.660;10.200;2023-02-14T04:43:38;8.90;81.10
20337;DHT22;10326;53.660;10.200;2023-02-14T04:46:05;8.90;81.10
20337;DHT22;10326;53.660;10.200;2023-02-14T04:48:33;8.90;81.10
20337;DHT22;10326;53.660;10.200;2023-02-14T04:51:00;8.90;81.10
20337;DHT22;10326;53.660;10.200;2023-02-14T04:53:27;8.90;81.10
20337;DHT22;10326;53.660;10.200;2023-02-14T04:55:54;8.90;81.00
20337;DHT22;10326;53.660;10.200;2023-02-14T04:58:21;8.90;81.00
20337;DHT22;10326;53.660;10.200;2023-02-14T05:00:50;8.90;81.10
20337;DHT22;10326;53.660;10.200;2023-02-14T05:03:17;8.90;81.10
20337;DHT22;10326;53.660;10.200;2023-02-14T05:05:44;8.90;81.10
20337;DHT22;10326;53.660;10.200;2023-02-14T05:08:12;8.90;81.10
20337;DHT22;10326;53.660;10.200;2023-02-14T05:10:40;8.90;81.10
20337;DHT22;10326;53.660;10.200;2023-02-14T05:13:08;8.90;81.20
20337;DHT22;10326;53.660;10.200;2023-02-14T05:15:35;8.90;81.20
20337;DHT22;10326;53.660;10.200;2023-02-14T05:18:04;8.90;81.20
20337;DHT22;10326;53.660;10.200;2023-02-14T05:20:31;8.90;81.20
20337;DHT22;10326;53.660;10.200;2023-02-14T05:22:58;8.90;81.20
20337;DHT22;10326;53.660;10.200;2023-02-14T05:25:28;8.90;81.20
20337;DHT22;10326;53.660;10.200;2023-02-14T05:27:55;8.90;81.10
20337;DHT22;10326;53.660;10.200;2023-02-14T05:30:22;8.90;81.00
20337;DHT22;10326;53.660;10.200;2023-02-14T05:32:53;8.90;81.00
20337;DHT22;10326;53.660;10.200;2023-02-14T05:35:22;8.90;81.00
20337;DHT22;10326;53.660;10.200;2023-02-14T05:37:50;8.90;81.00
20337;DHT22;10326;53.660;10.200;2023-02-14T05:40:17;8.80;81.00
20337;DHT22;10326;53.660;10.200;2023-02-14T05:42:44;8.90;81.00
20337;DHT22;10326;53.660;10.200;2023-02-14T05:45:12;8.90;81.10
20337;DHT22;10326;53.660;10.200;2023-02-14T05:47:39;8.90;81.10
20337;DHT22;10326;53.660;10.200;2023-02-14T05:50:07;8.90;81.10
20337;DHT22;10326;53.660;10.200;2023-02-14T05:52:37;8.80;81.10
20337;DHT22;10326;53.660;10.200;2023-02-14T05:55:05;8.80;81.00
20337;DHT22;10326;53.660;10.200;2023-02-14T05:57:32;8.80;81.00
20337;DHT22;10326;53.660;10.200;2023-02-14T06:00:00;8.90;81.10
20337;DHT22;10326;53.660;10.200;2023-02-14T06:02:27;8.80;81.10
20337;DHT22;10326;53.660;10.200;2023-02-14T06:04:54;8.80;81.10
20337;DHT22;10326;53.660;10.200;2023-02-14T06:07:21;8.90;81.10
20337;DHT22;10326;53.660;10.200;2023-02-14T06:09:50;8.80;81.10
20337;DHT22;10326;53.660;10.200;2023-02-14T06:12:17;8.80;81.10
20337;DHT22;10326;53.660;10.200;2023-02-14T06:14:44;8.80;81.20
20337;DHT22;10326;53.660;10.200;2023-02-14T06:17:11;8.80;81.20
20337;DHT22;10326;53.660;10.200;2023-02-14T06:19:39;8.90;81.30
20337;DHT22;10326;53.660;10.200;2023-02-14T06:22:07;8.80;81.20
20337;DHT22;10326;53.660;10.200;2023-02-14T06:24:34;8.80;81.20
20337;DHT22;10326;53.660;10.200;2023-02-14T06:27:03;8.80;81.20
20337;DHT22;10326;53.660;10.200;2023-02-14T06:29:30;8.80;81.20
20337;DHT22;10326;53.660;10.200;2023-02-14T06:31:57;8.80;81.20
20337;DHT22;10326;53.660;10.200;2023-02-14T06:34:30;8.80;81.20
20337;DHT22;10326;53.660;10.200;2023-02-14T06:36:57;8.90;81.20
20337;DHT22;10326;53.660;10.200;2023-02-14T06:39:25;8.80;81.10
20337;DHT22;10326;53.660;10.200;2023-02-14T06:41:52;8.80;81.10
20337;DHT22;10326;53.660;10.200;2023-02-14T06:44:21;8.80;81.20
20337;DHT22;10326;53.660;10.200;2023-02-14T06:46:48;8.80;81.20
20337;DHT22;10326;53.660;10.200;2023-02-14T06:49:15;8.80;81.20
20337;DHT22;10326;53.660;10.200;2023-02-14T06:51:42;8.80;81.20
20337;DHT22;10326;53.660;10.200;2023-02-14T06:54:09;8.80;81.20
20337;DHT22;10326;53.660;10.200;2023-02-14T06:56:36;8.90;81.20
20337;DHT22;10326;53.660;10.200;2023-02-14T06:59:03;8.80;81.20
20337;DHT22;10326;53.660;10.200;2023-02-14T07:01:32;8.80;81.20
20337;DHT22;10326;53.660;10.200;2023-02-14T07:03:59;8.80;81.20
20337;DHT22;10326;53.660;10.200;2023-02-14T07:06:27;8.80;81.20
20337;DHT22;10326;53.660;10.200;2023-02-14T07:08:54;8.80;81.20
20337;DHT22;10326;53.660;10.200;2023-02-14T07:11:21;8.80;81.30
20337;DHT22;10326;53.660;10.200;2023-02-14T07:13:48;8.90;81.40
20337;DHT22;10326;53.660;10.200;2023-02-14T07:16:15;8.90;81.40
20337;DHT22;10326;53.660;10.200;2023-02-14T07:18:44;8.80;81.40
20337;DHT22;10326;53.660;10.200;2023-02-14T07:21:11;8.90;81.50
20337;DHT22;10326;53.660;10.200;2023-02-14T07:23:39;8.90;81.50
20337;DHT22;10326;53.660;10.200;2023-02-14T07:26:06;8.90;81.50
20337;DHT22;10326;53.660;10.200;2023-02-14T07:28:33;8.90;81.50
20337;DHT22;10326;53.660;10.200;2023-02-14T07:31:00;8.90;81.50
20337;DHT22;10326;53.660;10.200;2023-02-14T07:33:28;8.90;81.50
20337;DHT22;10326;53.660;10.200;2023-02-14T07:35:56;8.90;81.40
20337;DHT22;10326;53.660;10.200;2023-02-14T07:38:23;8.90;81.50
20337;DHT22;10326;53.660;10.200;2023-02-14T07:40:52;8.90;81.50
20337;DHT22;10326;53.660;10.200;2023-02-14T07:43:20;9.00;81.60
20337;DHT22;10326;53.660;10.200;2023-02-14T07:45:47;9.00;81.60
20337;DHT22;10326;53.660;10.200;2023-02-14T07:48:15;9.00;81.60
20337;DHT22;10326;53.660;10.200;2023-02-14T07:50:42;9.00;81.70
20337;DHT22;10326;53.660;10.200;2023-02-14T07:53:11;9.00;81.70
20337;DHT22;10326;53.660;10.200;2023-02-14T07:55:38;9.00;81.80
20337;DHT22;10326;53.660;10.200;2023-02-14T07:58:06;9.00;81.90
20337;DHT22;10326;53.660;10.200;2023-02-14T08:00:33;9.00;82.00
20337;DHT22;10326;53.660;10.200;2023-02-14T08:03:00;9.00;82.00
20337;DHT22;10326;53.660;10.200;2023-02-14T08:05:28;9.10;82.10
20337;DHT22;10326;53.660;10.200;2023-02-14T08:07:55;9.10;82.10
20337;DHT22;10326;53.660;10.200;2023-02-14T08:10:24;9.10;82.00
20337;DHT22;10326;53.660;10.200;2023-02-14T08:12:51;9.10;82.40
20337;DHT22;10326;53.660;10.200;2023-02-14T08:15:24;9.20;82.00
20337;DHT22;10326;53.660;10.200;2023-02-14T08:18:09;9.20;82.00
20337;DHT22;10326;53.660;10.200;2023-02-14T08:20:37;9.20;82.00
20337;DHT22;10326;53.660;10.200;2023-02-14T08:23:04;9.20;82.00
20337;DHT22;10326;53.660;10.200;2023-02-14T08:25:33;9.20;82.10
20337;DHT22;10326;53.660;10.200;2023-02-14T08:28:01;9.20;82.20
20337;DHT22;10326;53.660;10.200;2023-02-14T08:30:29;9.30;82.20
20337;DHT22;10326;53.660;10.200;2023-02-14T08:32:57;9.30;82.20
20337;DHT22;10326;53.660;10.200;2023-02-14T08:35:24;9.30;82.30
20337;DHT22;10326;53.660;10.200;2023-02-14T08:37:51;9.30;82.30
20337;DHT22;10326;53.660;10.200;2023-02-14T08:40:19;9.30;82.20
20337;DHT22;10326;53.660;10.200;2023-02-14T08:42:47;9.40;82.30
20337;DHT22;10326;53.660;10.200;2023-02-14T08:45:15;9.40;82.30
20337;DHT22;10326;53.660;10.200;2023-02-14T08:47:42;9.40;82.40
20337;DHT22;10326;53.660;10.200;2023-02-14T08:50:11;9.50;82.40
20337;DHT22;10326;53.660;10.200;2023-02-14T08:52:40;9.50;82.30
20337;DHT22;10326;53.660;10.200;2023-02-14T08:55:08;9.50;82.30
20337;DHT22;10326;53.660;10.200;2023-02-14T08:57:36;9.50;82.40
20337;DHT22;10326;53.660;10.200;2023-02-14T09:00:06;9.60;82.50
20337;DHT22;10326;53.660;10.200;2023-02-14T09:02:35;9.60;82.60
20337;DHT22;10326;53.660;10.200;2023-02-14T09:05:03;9.60;82.50
20337;DHT22;10326;53.660;10.200;2023-02-14T09:07:33;9.70;82.60
20337;DHT22;10326;53.660;10.200;2023-02-14T09:10:01;9.70;82.70
20337;DHT22;10326;53.660;10.200;2023-02-14T09:12:28;9.70;82.70
20337;DHT22;10326;53.660;10.200;2023-02-14T09:14:55;9.80;82.70
20337;DHT22;10326;53.660;10.200;2023-02-14T09:17:23;9.80;82.70
20337;DHT22;10326;53.660;10.200;2023-02-14T09:19:51;9.80;82.60
20337;DHT22;10326;53.660;10.200;2023-02-14T09:22:18;9.80;82.50
20337;DHT22;10326;53.660;10.200;2023-02-14T09:24:46;9.80;82.50
20337;DHT22;10326;53.660;10.200;2023-02-14T09:27:13;9.90;82.50
20337;DHT22;10326;53.660;10.200;2023-02-14T09:29:40;9.90;82.40
20337;DHT22;10326;53.660;10.200;2023-02-14T09:32:08;9.90;82.30
20337;DHT22;10326;53.660;10.200;2023-02-14T09:34:36;9.90;82.30
20337;DHT22;10326;53.660;10.200;2023-02-14T09:37:03;9.90;82.90
20337;DHT22;10326;53.660;10.200;2023-02-14T09:39:31;9.90;82.30
20337;DHT22;10326;53.660;10.200;2023-02-14T09:42:08;10.00;82.30
20337;DHT22;10326;53.660;10.200;2023-02-14T09:44:46;10.00;82.30
20337;DHT22;10326;53.660;10.200;2023-02-14T09:47:20;10.00;82.40
20337;DHT22;10326;53.660;10.200;2023-02-14T09:49:52;10.00;82.40
20337;DHT22;10326;53.660;10.200;2023-02-14T09:52:22;10.00;82.30
20337;DHT22;10326;53.660;10.200;2023-02-14T09:54:56;10.00;82.30
20337;DHT22;10326;53.660;10.200;2023-02-14T09:57:34;10.00;82.40
20337;DHT22;10326;53.660;10.200;2023-02-14T10:00:16;10.00;82.30
20337;DHT22;10326;53.660;10.200;2023-02-14T10:02:56;10.10;82.50
20337;DHT22;10326;53.660;10.200;2023-02-14T10:05:27;10.00;82.40
20337;DHT22;10326;53.660;10.200;2023-02-14T10:08:02;10.10;82.50
20337;DHT22;10326;53.660;10.200;2023-02-14T10:10:37;10.10;82.50
20337;DHT22;10326;53.660;10.200;2023-02-14T10:13:12;10.10;82.60
20337;DHT22;10326;53.660;10.200;2023-02-14T10:15:45;10.10;82.70
20337;DHT22;10326;53.660;10.200;2023-02-14T10:18:17;10.20;82.80
20337;DHT22;10326;53.660;10.200;2023-02-14T10:20:52;10.20;83.30
20337;DHT22;10326;53.660;10.200;2023-02-14T10:23:31;10.30;82.80
20337;DHT22;10326;53.660;10.200;2023-02-14T10:26:02;10.30;82.70
20337;DHT22;10326;53.660;10.200;2023-02-14T10:28:32;10.30;82.80
20337;DHT22;10326;53.660;10.200;2023-02-14T10:31:13;10.40;82.90
20337;DHT22;10326;53.660;10.200;2023-02-14T10:33:51;10.40;82.70
20337;DHT22;10326;53.660;10.200;2023-02-14T10:36:35;10.40;82.60
20337;DHT22;10326;53.660;10.200;2023-02-14T10:39:25;10.40;82.40
20337;DHT22;10326;53.660;10.200;2023-02-14T10:42:08;10.50;82.30
20337;DHT22;10326;53.660;10.200;2023-02-14T10:44:46;10.50;82.30
20337;DHT22;10326;53.660;10.200;2023-02-14T10:47:31;10.50;82.40
20337;DHT22;10326;53.660;10.200;2023-02-14T10:50:12;10.50;82.40
20337;DHT22;10326;53.660;10.200;2023-02-14T10:52:51;10.60;82.50
20337;DHT22;10326;53.660;10.200;2023-02-14T10:55:37;10.60;82.60
20337;DHT22;10326;53.660;10.200;2023-02-14T10:58:12;10.60;82.60
20337;DHT22;10326;53.660;10.200;2023-02-14T11:00:52;10.60;82.60
20337;DHT22;10326;53.660;10.200;2023-02-14T11:03:23;10.60;82.50
20337;DHT22;10326;53.660;10.200;2023-02-14T11:05:51;10.70;82.50
20337;DHT22;10326;53.660;10.200;2023-02-14T11:08:24;10.70;82.50
20337;DHT22;10326;53.660;10.200;2023-02-14T11:10:55;10.70;82.50
20337;DHT22;10326;53.660;10.200;2023-02-14T11:13:31;10.80;82.60
20337;DHT22;10326;53.660;10.200;2023-02-14T11:16:02;10.80;82.70
20337;DHT22;10326;53.660;10.200;2023-02-14T11:18:31;10.80;82.70
20337;DHT22;10326;53.660;10.200;2023-02-14T11:21:02;10.80;82.60
20337;DHT22;10326;53.660;10.200;2023-02-14T11:23:34;10.90;82.70
20337;DHT22;10326;53.660;10.200;2023-02-14T11:26:06;10.90;82.70
20337;DHT22;10326;53.660;10.200;2023-02-14T11:28:36;10.90;82.70
20337;DHT22;10326;53.660;10.200;2023-02-14T11:31:12;11.00;82.70
20337;DHT22;10326;53.660;10.200;2023-02-14T11:33:41;11.00;82.70
20337;DHT22;10326;53.660;10.200;2023-02-14T11:36:10;11.00;82.70
20337;DHT22;10326;53.660;10.200;2023-02-14T11:38:41;11.10;82.90
20337;DHT22;10326;53.660;10.200;2023-02-14T11:41:11;11.10;82.80
20337;DHT22;10326;53.660;10.200;2023-02-14T11:43:40;11.10;82.80
20337;DHT22;10326;53.660;10.200;2023-02-14T11:46:17;11.20;82.70
20337;DHT22;10326;53.660;10.200;2023-02-14T11:48:55;11.20;82.50
20337;DHT22;10326;53.660;10.200;2023-02-14T11:51:28;11.20;82.70
20337;DHT22;10326;53.660;10.200;2023-02-14T11:54:00;11.30;82.70
20337;DHT22;10326;53.660;10.200;2023-02-14T11:56:48;11.30;82.80
20337;DHT22;10326;53.660;10.200;2023-02-14T11:59:31;11.40;82.70
20337;DHT22;10326;53.660;10.200;2023-02-14T12:02:10;11.40;82.50
20337;DHT22;10326;53.660;10.200;2023-02-14T12:04:55;11.40;82.70
20337;DHT22;10326;53.660;10.200;2023-02-14T12:07:26;11.50;82.80
20337;DHT22;10326;53.660;10.200;2023-02-14T12:10:25;11.50;83.00
20337;DHT22;10326;53.660;10.200;2023-02-14T12:12:57;11.60;86.20
20337;DHT22;10326;53.660;10.200;2023-02-14T12:15:29;11.70;86.90
20337;DHT22;10326;53.660;10.200;2023-02-14T12:18:37;11.90;89.70
20337;DHT22;10326;53.660;10.200;2023-02-14T12:21:38;12.10;91.70
20337;DHT22;10326;53.660;10.200;2023-02-14T12:24:17;12.50;92.30
20337;DHT22;10326;53.660;10.200;2023-02-14T12:26:56;12.80;90.50
20337;DHT22;10326;53.660;10.200;2023-02-14T12:29:32;13.10;90.00
20337;DHT22;10326;53.660;10.200;2023-02-14T12:32:11;13.40;88.90
20337;DHT22;10326;53.660;10.200;2023-02-14T12:34:42;13.70;87.30
20337;DHT22;10326;53.660;10.200;2023-02-14T12:37:26;13.90;86.80
20337;DHT22;10326;53.660;10.200;2023-02-14T12:40:10;14.10;86.70
20337;DHT22;10326;53.660;10.200;2023-02-14T12:43:03;14.30;87.00
20337;DHT22;10326;53.660;10.200;2023-02-14T12:45:54;14.60;87.80
20337;DHT22;10326;53.660;10.200;2023-02-14T12:48:36;14.90;87.70
20337;DHT22;10326;53.660;10.200;2023-02-14T12:51:11;15.10;86.50
20337;DHT22;10326;53.660;10.200;2023-02-14T12:54:01;15.40;86.10
20337;DHT22;10326;53.660;10.200;2023-02-14T12:56:41;15.70;84.80
20337;DHT22;10326;53.660;10.200;2023-02-14T12:59:23;15.90;84.80
20337;DHT22;10326;53.660;10.200;2023-02-14T13:02:33;16.00;84.20
20337;DHT22;10326;53.660;10.200;2023-02-14T13:05:20;16.30;84.40
20337;DHT22;10326;53.660;10.200;2023-02-14T13:08:01;16.50;84.30
20337;DHT22;10326;53.660;10.200;2023-02-14T13:10:46;16.70;83.00
20337;DHT22;10326;53.660;10.200;2023-02-14T13:13:24;16.80;82.40
20337;DHT22;10326;53.660;10.200;2023-02-14T13:16:03;17.00;81.70
20337;DHT22;10326;53.660;10.200;2023-02-14T13:18:40;17.10;81.10
20337;DHT22;10326;53.660;10.200;2023-02-14T13:21:15;17.20;81.60
20337;DHT22;10326;53.660;10.200;2023-02-14T13:23:46;17.30;80.70
20337;DHT22;10326;53.660;10.200;2023-02-14T13:26:17;17.40;80.50
20337;DHT22;10326;53.660;10.200;2023-02-14T13:28:49;17.50;80.20
20337;DHT22;10326;53.660;10.200;2023-02-14T13:31:19;17.60;79.30
20337;DHT22;10326;53.660;10.200;2023-02-14T13:33:50;17.60;79.40
20337;DHT22;10326;53.660;10.200;2023-02-14T13:36:19;17.70;79.80
20337;DHT22;10326;53.660;10.200;2023-02-14T13:38:49;17.80;79.70
20337;DHT22;10326;53.660;10.200;2023-02-14T13:41:18;18.00;79.70
20337;DHT22;10326;53.660;10.200;2023-02-14T13:43:53;18.10;79.40
20337;DHT22;10326;53.660;10.200;2023-02-14T13:46:51;18.20;78.30
20337;DHT22;10326;53.660;10.200;2023-02-14T13:49:28;18.30;78.20
20337;DHT22;10326;53.660;10.200;2023-02-14T13:51:58;18.50;77.00
20337;DHT22;10326;53.660;10.200;2023-02-14T13:54:31;18.50;77.50
20337;DHT22;10326;53.660;10.200;2023-02-14T13:57:01;18.60;76.80
20337;DHT22;10326;53.660;10.200;2023-02-14T13:59:32;18.60;76.60
20337;DHT22;10326;53.660;10.200;2023-02-14T14:02:37;18.60;75.70
20337;DHT22;10326;53.660;10.200;2023-02-14T14:14:30;18.10;73.20
20337;DHT22;10326;53.660;10.200;2023-02-14T14:17:01;17.90;73.40
20337;DHT22;10326;53.660;10.200;2023-02-14T14:19:45;17.70;73.70
20337;DHT22;10326;53.660;10.200;2023-02-14T14:22:14;17.60;73.60
20337;DHT22;10326;53.660;10.200;2023-02-14T14:24:54;17.40;73.40
20337;DHT22;10326;53.660;10.200;2023-02-14T14:27:26;17.20;72.70
20337;DHT22;10326;53.660;10.200;2023-02-14T14:29:57;17.10;73.40
20337;DHT22;10326;53.660;10.200;2023-02-14T14:32:27;16.90;73.50
20337;DHT22;10326;53.660;10.200;2023-02-14T14:34:58;16.70;73.20
20337;DHT22;10326;53.660;10.200;2023-02-14T14:37:28;16.60;73.20
20337;DHT22;10326;53.660;10.200;2023-02-14T14:39:58;16.40;73.40
20337;DHT22;10326;53.660;10.200;2023-02-14T14:42:29;16.30;73.70
20337;DHT22;10326;53.660;10.200;2023-02-14T14:45:01;16.20;73.60
20337;DHT22;10326;53.660;10.200;2023-02-14T14:47:37;16.10;73.70
20337;DHT22;10326;53.660;10.200;2023-02-14T14:50:13;15.90;73.40
20337;DHT22;10326;53.660;10.200;2023-02-14T14:52:44;15.80;73.20
20337;DHT22;10326;53.660;10.200;2023-02-14T14:55:17;15.70;73.60
20337;DHT22;10326;53.660;10.200;2023-02-14T14:57:48;15.60;73.50
20337;DHT22;10326;53.660;10.200;2023-02-14T15:00:23;15.50;73.40
20337;DHT22;10326;53.660;10.200;2023-02-14T15:02:58;15.40;73.40
20337;DHT22;10326;53.660;10.200;2023-02-14T15:05:32;15.30;73.30
20337;DHT22;10326;53.660;10.200;2023-02-14T15:08:15;15.30;73.70
20337;DHT22;10326;53.660;10.200;2023-02-14T15:10:48;15.20;73.60
20337;DHT22;10326;53.660;10.200;2023-02-14T15:13:21;15.10;73.70
20337;DHT22;10326;53.660;10.200;2023-02-14T15:16:19;15.00;73.70
20337;DHT22;10326;53.660;10.200;2023-02-14T15:18:48;14.90;73.60
20337;DHT22;10326;53.660;10.200;2023-02-14T15:21:18;14.80;74.00
20337;DHT22;10326;53.660;10.200;2023-02-14T15:23:46;14.70;73.90
20337;DHT22;10326;53.660;10.200;2023-02-14T15:26:16;14.70;74.10
20337;DHT22;10326;53.660;10.200;2023-02-14T15:28:53;14.60;74.10
20337;DHT22;10326;53.660;10.200;2023-02-14T15:31:22;14.50;73.90
20337;DHT22;10326;53.660;10.200;2023-02-14T15:33:52;14.50;74.30
20337;DHT22;10326;53.660;10.200;2023-02-14T15:36:21;14.40;74.30
20337;DHT22;10326;53.660;10.200;2023-02-14T15:38:50;14.40;74.30
20337;DHT22;10326;53.660;10.200;2023-02-14T15:41:18;14.30;74.30
20337;DHT22;10326;53.660;10.200;2023-02-14T15:43:49;14.30;74.50
20337;DHT22;10326;53.660;10.200;2023-02-14T15:46:24;14.20;74.20
20337;DHT22;10326;53.660;10.200;2023-02-14T15:48:57;14.20;74.40
20337;DHT22;10326;53.660;10.200;2023-02-14T15:51:29;14.10;74.40
20337;DHT22;10326;53.660;10.200;2023-02-14T15:54:00;14.10;74.20
20337;DHT22;10326;53.660;10.200;2023-02-14T15:56:29;14.00;74.20
20337;DHT22;10326;53.660;10.200;2023-02-14T15:59:00;14.00;74.20
20337;DHT22;10326;53.660;10.200;2023-02-14T16:01:29;13.90;74.10
20337;DHT22;10326;53.660;10.200;2023-02-14T16:03:59;13.80;74.00
20337;DHT22;10326;53.660;10.200;2023-02-14T16:06:33;13.80;74.10
20337;DHT22;10326;53.660;10.200;2023-02-14T16:09:03;13.70;74.00
20337;DHT22;10326;53.660;10.200;2023-02-14T16:11:33;13.70;74.10
20337;DHT22;10326;53.660;10.200;2023-02-14T16:14:29;13.60;74.00
20337;DHT22;10326;53.660;10.200;2023-02-14T16:17:01;13.50;73.60
20337;DHT22;10326;53.660;10.200;2023-02-14T16:19:34;13.50;73.90